createdAt,value
2018-01-21T00:01:03.329Z,94336.59
2018-01-21T00:03:30.896Z,94334.83
2018-01-21T00:05:58.474Z,94340.23
2018-01-21T00:08:26.112Z,94331.55
2018-01-21T00:10:53.723Z,94325.13
2018-01-21T00:13:21.347Z,94328.25
2018-01-21T00:15:48.936Z,94327.02
2018-01-21T00:18:16.533Z,94327.27
2018-01-21T00:20:44.113Z,94330.90
2018-01-21T00:23:12.344Z,94327.63
2018-01-21T00:25:40.226Z,94329.52
2018-01-21T00:28:07.838Z,94332.64
2018-01-21T00:30:35.452Z,94340.56
2018-01-21T00:33:03.063Z,94333.09
2018-01-21T00:35:30.674Z,94325.43
2018-01-21T00:37:58.262Z,94331.63
2018-01-21T00:40:25.963Z,94339.99
2018-01-21T00:42:53.548Z,94342.48
2018-01-21T00:45:21.204Z,94346.55
2018-01-21T00:47:48.801Z,94346.37
2018-01-21T00:50:16.483Z,94343.39
2018-01-21T00:52:44.141Z,94351.80
2018-01-21T00:55:11.781Z,94344.73
2018-01-21T00:57:39.340Z,94346.83
2018-01-21T01:00:06.924Z,94348.53
2018-01-21T01:02:34.480Z,94353.31
2018-01-21T01:05:02.158Z,94358.50
2018-01-21T01:07:29.728Z,94365.52
2018-01-21T01:09:57.307Z,94365.13
2018-01-21T01:12:24.924Z,94363.16
2018-01-21T01:14:52.561Z,94361.63
2018-01-21T01:17:20.126Z,94364.06
2018-01-21T01:19:47.703Z,94365.53
2018-01-21T01:22:15.470Z,94369.76
2018-01-21T01:24:43.048Z,94374.98
2018-01-21T01:27:11.847Z,94376.05
2018-01-21T01:29:39.538Z,94371.50
2018-01-21T01:32:08.450Z,94373.98
2018-01-21T01:34:36.039Z,94382.34
2018-01-21T01:37:03.653Z,94380.66
2018-01-21T01:39:31.370Z,94385.23
2018-01-21T01:41:58.977Z,94384.06
2018-01-21T01:44:26.531Z,94387.48
2018-01-21T01:46:54.340Z,94384.93
2018-01-21T01:49:22.094Z,94385.13
2018-01-21T01:51:49.786Z,94379.84
2018-01-21T01:54:17.360Z,94374.36
2018-01-21T01:56:44.974Z,94377.38
2018-01-21T01:59:12.713Z,94378.54
2018-01-21T02:01:40.291Z,94382.89
2018-01-21T02:04:07.912Z,94377.27
2018-01-21T02:06:35.697Z,94377.47
2018-01-21T02:09:03.556Z,94368.80
2018-01-21T02:11:31.955Z,94376.33
2018-01-21T02:13:59.512Z,94375.04
2018-01-21T02:16:27.556Z,94376.37
2018-01-21T02:18:55.130Z,94377.75
2018-01-21T02:21:23.067Z,94389.17
2018-01-21T02:23:51.111Z,94388.92
2018-01-21T02:26:18.664Z,94387.13
2018-01-21T02:28:46.227Z,94383.89
2018-01-21T02:31:14.142Z,94386.30
2018-01-21T02:33:41.805Z,94394.70
2018-01-21T02:36:09.423Z,94396.75
2018-01-21T02:38:39.736Z,94394.38
2018-01-21T02:41:07.475Z,94399.46
2018-01-21T02:43:35.243Z,94386.30
2018-01-21T02:46:02.836Z,94392.59
2018-01-21T02:48:30.438Z,94399.14
2018-01-21T02:50:58.022Z,94401.88
2018-01-21T02:53:25.604Z,94401.34
2018-01-21T02:55:53.531Z,94410.92
2018-01-21T02:58:21.088Z,94407.80
2018-01-21T03:00:48.671Z,94411.69
2018-01-21T03:03:17.051Z,94419.08
2018-01-21T03:05:46.127Z,94421.86
2018-01-21T03:08:13.713Z,94432.19
2018-01-21T03:10:41.397Z,94430.45
2018-01-21T03:13:09.432Z,94431.69
2018-01-21T03:15:37.297Z,94435.52
2018-01-21T03:18:06.369Z,94438.02
2018-01-21T03:20:34.168Z,94449.02
2018-01-21T03:23:01.754Z,94452.13
2018-01-21T03:25:29.784Z,94452.69
2018-01-21T03:27:57.760Z,94451.53
2018-01-21T03:30:25.785Z,94457.41
2018-01-21T03:32:53.377Z,94467.27
2018-01-21T03:35:21.112Z,94463.47
2018-01-21T03:37:48.717Z,94454.97
2018-01-21T03:40:16.304Z,94461.96
2018-01-21T03:42:43.875Z,94471.41
2018-01-21T03:45:12.032Z,94477.73
2018-01-21T03:47:39.580Z,94480.30
2018-01-21T03:50:07.147Z,94496.30
2018-01-21T03:52:34.861Z,94493.58
2018-01-21T03:55:02.438Z,94495.68
2018-01-21T03:57:30.519Z,94498.82
2018-01-21T03:59:58.422Z,94506.33
2018-01-21T04:02:26.005Z,94507.30
2018-01-21T04:04:53.569Z,94508.02
2018-01-21T04:07:21.218Z,94514.37
2018-01-21T04:09:49.108Z,94514.63
2018-01-21T04:12:16.674Z,94516.21
2018-01-21T04:14:44.262Z,94528.31
2018-01-21T04:17:12.277Z,94536.66
2018-01-21T04:19:39.902Z,94538.95
2018-01-21T04:22:13.275Z,94543.79
2018-01-21T04:24:40.846Z,94551.75
2018-01-21T04:27:09.050Z,94555.53
2018-01-21T04:29:37.011Z,94556.59
2018-01-21T04:32:04.609Z,94565.10
2018-01-21T04:34:32.214Z,94571.00
2018-01-21T04:37:00.697Z,94575.73
2018-01-21T04:39:30.480Z,94579.78
2018-01-21T04:41:58.091Z,94587.07
2018-01-21T04:44:33.559Z,94587.85
2018-01-21T04:47:02.081Z,94590.27
2018-01-21T04:49:29.686Z,94580.70
2018-01-21T04:51:57.264Z,94583.29
2018-01-21T04:54:32.791Z,94583.56
2018-01-21T04:57:00.392Z,94590.03
2018-01-21T04:59:27.987Z,94598.82
2018-01-21T05:01:55.599Z,94610.58
2018-01-21T05:04:23.178Z,94608.77
2018-01-21T05:06:50.750Z,94618.68
2018-01-21T05:09:18.339Z,94629.07
2018-01-21T05:11:46.002Z,94635.84
2018-01-21T05:14:13.652Z,94643.52
2018-01-21T05:16:41.416Z,94649.41
2018-01-21T05:19:10.237Z,94655.69
2018-01-21T05:21:37.888Z,94652.01
2018-01-21T05:24:05.517Z,94657.39
2018-01-21T05:26:33.112Z,94659.73
2018-01-21T05:29:00.749Z,94666.14
2018-01-21T05:31:29.042Z,94675.41
2018-01-21T05:33:56.812Z,94678.98
2018-01-21T05:36:24.496Z,94683.83
2018-01-21T05:38:52.116Z,94690.91
2018-01-21T05:41:19.692Z,94701.72
2018-01-21T05:43:47.359Z,94703.83
2018-01-21T05:46:15.121Z,94706.66
2018-01-21T05:48:42.758Z,94712.88
2018-01-21T05:51:11.329Z,94721.27
2018-01-21T05:53:38.945Z,94717.53
2018-01-21T05:56:06.553Z,94734.66
2018-01-21T05:58:34.175Z,94738.01
2018-01-21T06:01:01.726Z,94740.34
2018-01-21T06:03:29.440Z,94751.42
2018-01-21T06:05:57.250Z,94756.71
2018-01-21T06:08:26.329Z,94762.57
2018-01-21T06:10:53.937Z,94764.16
2018-01-21T06:13:21.882Z,94768.88
2018-01-21T06:15:49.582Z,94777.38
2018-01-21T06:18:17.286Z,94781.47
2018-01-21T06:20:45.114Z,94788.27
2018-01-21T06:23:12.714Z,94798.66
2018-01-21T06:25:40.307Z,94801.20
2018-01-21T06:28:07.956Z,94804.56
2018-01-21T06:30:35.572Z,94813.35
2018-01-21T06:33:03.261Z,94803.55
2018-01-21T06:35:32.027Z,94805.75
2018-01-21T06:37:59.645Z,94817.16
2018-01-21T06:40:29.070Z,94813.16
2018-01-21T06:42:56.723Z,94812.72
2018-01-21T06:45:24.346Z,94815.48
2018-01-21T06:47:52.281Z,94818.87
2018-01-21T06:50:20.018Z,94829.14
2018-01-21T06:52:47.701Z,94832.52
2018-01-21T06:55:15.341Z,94835.63
2018-01-21T06:57:42.982Z,94838.88
2018-01-21T07:00:10.546Z,94837.11
2018-01-21T07:02:38.317Z,94842.02
2018-01-21T07:05:06.373Z,94846.61
2018-01-21T07:07:35.536Z,94852.74
2018-01-21T07:10:03.225Z,94853.47
2018-01-21T07:12:32.157Z,94865.48
2018-01-21T07:15:02.165Z,94865.36
2018-01-21T07:17:31.324Z,94870.66
2018-01-21T07:20:00.691Z,94871.72
2018-01-21T07:22:28.247Z,94879.69
2018-01-21T07:24:55.815Z,94882.16
2018-01-21T07:27:23.617Z,94884.17
2018-01-21T07:29:51.195Z,94890.77
2018-01-21T07:32:18.780Z,94895.93
2018-01-21T07:34:46.435Z,94902.52
2018-01-21T07:37:14.290Z,94905.41
2018-01-21T07:39:43.831Z,94906.45
2018-01-21T07:42:13.256Z,94913.70
2018-01-21T07:44:40.949Z,94922.27
2018-01-21T07:47:08.749Z,94926.71
2018-01-21T07:49:38.209Z,94933.05
2018-01-21T07:52:05.772Z,94932.42
2018-01-21T07:54:34.482Z,94934.70
2018-01-21T07:57:02.312Z,94931.07
2018-01-21T07:59:29.901Z,94930.13
2018-01-21T08:01:57.468Z,94935.16
2018-01-21T08:04:25.928Z,94931.91
2018-01-21T08:09:44.075Z,94939.23
2018-01-21T08:12:11.885Z,94938.59
2018-01-21T08:14:39.428Z,94940.95
2018-01-21T08:17:07.635Z,94950.61
2018-01-21T08:19:35.178Z,94952.72
2018-01-21T08:22:02.716Z,94962.27
2018-01-21T08:24:30.271Z,94963.78
2018-01-21T08:26:57.829Z,94964.95
2018-01-21T08:29:26.612Z,94971.09
2018-01-21T08:31:54.180Z,94975.35
2018-01-21T08:34:28.281Z,94985.63
2018-01-21T08:37:01.475Z,94987.24
2018-01-21T08:39:34.617Z,94994.75
2018-01-21T08:42:03.074Z,94992.03
2018-01-21T08:44:32.142Z,95000.02
2018-01-21T08:46:59.706Z,95003.48
2018-01-21T08:49:27.377Z,95008.22
2018-01-21T08:51:54.967Z,95002.32
2018-01-21T08:54:23.644Z,95008.53
2018-01-21T08:56:51.298Z,95020.74
2018-01-21T08:59:19.019Z,95025.38
2018-01-21T09:01:46.762Z,95026.77
2018-01-21T09:04:14.365Z,95038.28
2018-01-21T09:06:41.923Z,95040.02
2018-01-21T09:09:09.533Z,95043.58
2018-01-21T09:11:37.081Z,95055.66
2018-01-21T09:14:04.662Z,95058.31
2018-01-21T09:16:32.245Z,95064.84
2018-01-21T09:18:59.806Z,95068.63
2018-01-21T09:21:29.068Z,95071.81
2018-01-21T09:23:56.679Z,95075.75
2018-01-21T09:26:24.792Z,95079.35
2018-01-21T09:28:52.341Z,95078.00
2018-01-21T09:31:19.963Z,95088.53
2018-01-21T09:33:47.520Z,95096.42
2018-01-21T09:36:15.075Z,95098.95
2018-01-21T09:38:42.658Z,95102.73
2018-01-21T09:41:11.065Z,95108.48
2018-01-21T09:43:38.677Z,95112.80
2018-01-21T09:46:06.266Z,95116.47
2018-01-21T09:48:33.875Z,95116.84
2018-01-21T09:51:01.442Z,95120.09
2018-01-21T09:53:29.236Z,95123.73
2018-01-21T09:55:56.873Z,95128.78
2018-01-21T09:58:24.981Z,95132.69
2018-01-21T10:00:52.561Z,95139.50
2018-01-21T10:03:21.666Z,95140.05
2018-01-21T10:05:49.281Z,95133.50
2018-01-21T10:08:16.875Z,95132.88
2018-01-21T10:10:44.432Z,95136.07
2018-01-21T10:13:12.773Z,95137.36
2018-01-21T10:15:40.383Z,95142.54
2018-01-21T10:18:07.955Z,95140.73
2018-01-21T10:20:35.494Z,95150.83
2018-01-21T10:23:03.042Z,95146.50
2018-01-21T10:25:30.610Z,95147.98
2018-01-21T10:27:58.146Z,95154.20
2018-01-21T10:33:15.786Z,95163.50
2018-01-21T10:35:43.320Z,95158.03
2018-01-21T10:38:11.004Z,95159.61
2018-01-21T10:40:38.610Z,95161.28
2018-01-21T10:43:07.183Z,95161.98
2018-01-21T10:45:35.888Z,95169.37
2018-01-21T10:48:03.485Z,95174.81
2018-01-21T10:50:31.972Z,95180.08
2018-01-21T10:52:59.534Z,95186.97
2018-01-21T10:55:27.142Z,95187.34
2018-01-21T10:57:54.690Z,95193.97
2018-01-21T11:00:22.375Z,95187.19
2018-01-21T11:02:51.045Z,95197.52
2018-01-21T11:05:19.067Z,95200.64
2018-01-21T11:07:46.631Z,95202.09
2018-01-21T11:10:14.755Z,95199.88
2018-01-21T11:12:47.477Z,95205.98
2018-01-21T11:15:15.262Z,95208.66
2018-01-21T11:17:42.962Z,95213.37
2018-01-21T11:20:13.175Z,95215.17
2018-01-21T11:22:40.755Z,95226.25
2018-01-21T11:25:08.490Z,95226.69
2018-01-21T11:27:36.067Z,95226.41
2018-01-21T11:30:03.646Z,95239.27
2018-01-21T11:32:31.548Z,95233.17
2018-01-21T11:35:02.077Z,95239.58
2018-01-21T11:37:35.153Z,95239.26
2018-01-21T11:40:10.752Z,95239.39
2018-01-21T11:42:38.433Z,95241.38
2018-01-21T11:45:06.173Z,95246.25
2018-01-21T11:47:35.134Z,95249.50
2018-01-21T11:50:02.721Z,95255.25
2018-01-21T11:52:36.114Z,95259.27
2018-01-21T11:55:04.656Z,95260.11
2018-01-21T11:57:39.672Z,95269.25
2018-01-21T12:00:10.771Z,95276.17
2018-01-21T12:02:38.547Z,95280.20
2018-01-21T12:05:06.138Z,95280.06
2018-01-21T12:07:33.850Z,95282.83
2018-01-21T12:10:01.431Z,95288.09
2018-01-21T12:12:28.990Z,95290.16
2018-01-21T12:14:56.532Z,95291.67
2018-01-21T12:17:24.103Z,95293.70
2018-01-21T12:19:51.685Z,95304.09
2018-01-21T12:22:28.215Z,95308.38
2018-01-21T12:24:55.811Z,95307.13
2018-01-21T12:27:25.462Z,95307.83
2018-01-21T12:29:55.501Z,95318.26
2018-01-21T12:32:24.972Z,95316.28
2018-01-21T12:34:52.544Z,95318.88
2018-01-21T12:37:20.160Z,95314.50
2018-01-21T12:39:47.738Z,95326.22
2018-01-21T12:42:15.316Z,95326.86
2018-01-21T12:44:42.924Z,95332.64
2018-01-21T12:47:10.799Z,95337.07
2018-01-21T12:49:38.431Z,95348.11
2018-01-21T12:52:06.136Z,95349.28
2018-01-21T12:54:33.753Z,95356.88
2018-01-21T12:57:01.301Z,95356.69
2018-01-21T12:59:28.969Z,95376.09
2018-01-21T13:01:56.602Z,95372.68
2018-01-21T13:04:25.176Z,95376.20
2018-01-21T13:06:52.784Z,95378.81
2018-01-21T13:09:20.608Z,95383.13
2018-01-21T13:11:48.349Z,95386.69
2018-01-21T13:14:16.021Z,95396.12
2018-01-21T13:16:43.629Z,95400.20
2018-01-21T13:19:12.067Z,95402.30
2018-01-21T13:21:39.693Z,95409.44
2018-01-21T13:26:57.561Z,95424.77
2018-01-21T13:29:25.768Z,95436.42
2018-01-21T13:31:53.363Z,95432.66
2018-01-21T13:34:21.517Z,95440.91
2018-01-21T13:36:49.411Z,95449.82
2018-01-21T13:39:18.051Z,95449.06
2018-01-21T13:41:45.650Z,95456.85
2018-01-21T13:44:13.260Z,95463.14
2018-01-21T13:46:40.838Z,95467.78
2018-01-21T13:49:08.893Z,95479.77
2018-01-21T13:51:36.822Z,95484.73
2018-01-21T13:54:04.635Z,95483.62
2018-01-21T13:56:32.325Z,95498.98
2018-01-21T13:59:01.606Z,95503.16
2018-01-21T14:01:29.192Z,95506.71
2018-01-21T14:03:56.797Z,95516.48
2018-01-21T14:06:25.678Z,95524.98
2018-01-21T14:08:53.278Z,95533.14
2018-01-21T14:11:20.862Z,95530.58
2018-01-21T14:13:48.445Z,95539.28
2018-01-21T14:16:16.371Z,95547.28
2018-01-21T14:18:45.017Z,95547.14
2018-01-21T14:21:13.804Z,95550.13
2018-01-21T14:23:41.601Z,95555.48
2018-01-21T14:26:09.244Z,95562.40
2018-01-21T14:28:36.867Z,95564.41
2018-01-21T14:31:04.485Z,95569.18
2018-01-21T14:33:32.212Z,95577.11
2018-01-21T14:35:59.855Z,95580.56
2018-01-21T14:38:28.258Z,95585.04
2018-01-21T14:40:55.944Z,95587.92
2018-01-21T14:43:25.106Z,95595.05
2018-01-21T14:45:52.810Z,95602.79
2018-01-21T14:48:20.500Z,95608.52
2018-01-21T14:50:48.268Z,95615.52
2018-01-21T14:53:15.946Z,95620.46
2018-01-21T14:55:43.599Z,95622.16
2018-01-21T14:58:11.253Z,95626.22
2018-01-21T15:00:41.625Z,95637.84
2018-01-21T15:03:10.750Z,95646.84
2018-01-21T15:05:38.538Z,95642.12
2018-01-21T15:08:06.829Z,95650.94
2018-01-21T15:10:34.654Z,95659.09
2018-01-21T15:13:03.922Z,95666.25
2018-01-21T15:15:31.524Z,95678.30
2018-01-21T15:18:00.344Z,95675.94
2018-01-21T15:20:28.406Z,95683.53
2018-01-21T15:22:56.000Z,95693.01
2018-01-21T15:25:24.000Z,95700.86
2018-01-21T15:27:52.470Z,95697.48
2018-01-21T15:30:20.814Z,95707.33
2018-01-21T15:32:49.417Z,95714.36
2018-01-21T15:35:17.048Z,95719.58
2018-01-21T15:37:44.838Z,95718.24
2018-01-21T15:40:13.275Z,95723.44
2018-01-21T15:42:41.910Z,95731.47
2018-01-21T15:45:10.169Z,95735.63
2018-01-21T15:50:28.278Z,95738.58
2018-01-21T15:52:57.045Z,95749.48
2018-01-21T15:55:25.554Z,95757.13
2018-01-21T15:57:53.200Z,95762.52
2018-01-21T16:00:21.326Z,95771.46
2018-01-21T16:02:53.134Z,95784.08
2018-01-21T16:05:23.142Z,95799.26
2018-01-21T16:07:50.738Z,95802.07
2018-01-21T16:10:19.606Z,95804.16
2018-01-21T16:12:48.531Z,95815.61
2018-01-21T16:15:16.915Z,95814.39
2018-01-21T16:17:45.572Z,95818.89
2018-01-21T16:20:13.441Z,95821.51
2018-01-21T16:22:41.594Z,95826.63
2018-01-21T16:25:10.031Z,95835.50
2018-01-21T16:27:37.921Z,95838.80
2018-01-21T16:30:05.484Z,95833.27
2018-01-21T16:32:34.772Z,95838.29
2018-01-21T16:35:02.455Z,95841.52
2018-01-21T16:37:42.304Z,95845.08
2018-01-21T16:40:09.926Z,95850.08
2018-01-21T16:42:37.528Z,95854.67
2018-01-21T16:45:05.533Z,95859.94
2018-01-21T16:47:33.125Z,95875.22
2018-01-21T16:50:00.750Z,95874.73
2018-01-21T16:52:28.406Z,95867.87
2018-01-21T16:54:55.993Z,95879.66
2018-01-21T16:57:24.003Z,95878.97
2018-01-21T16:59:51.768Z,95880.20
2018-01-21T17:02:19.397Z,95885.16
2018-01-21T17:04:46.976Z,95892.95
2018-01-21T17:07:14.547Z,95898.75
2018-01-21T17:09:43.314Z,95896.74
2018-01-21T17:12:11.381Z,95907.80
2018-01-21T17:14:38.974Z,95904.50
2018-01-21T17:17:07.681Z,95913.27
2018-01-21T17:19:35.334Z,95921.10
2018-01-21T17:22:02.938Z,95922.80
2018-01-21T17:24:30.521Z,95940.63
2018-01-21T17:26:58.124Z,95942.47
2018-01-21T17:29:25.929Z,95942.86
2018-01-21T17:31:53.531Z,95958.31
2018-01-21T17:34:21.128Z,95953.93
2018-01-21T17:36:48.754Z,95964.36
2018-01-21T17:39:16.336Z,95956.78
2018-01-21T17:41:43.934Z,95961.41
2018-01-21T17:44:11.570Z,95974.48
2018-01-21T17:46:49.951Z,95982.60
2018-01-21T17:49:18.472Z,95987.91
2018-01-21T17:51:46.136Z,96003.98
2018-01-21T17:54:13.723Z,96005.20
2018-01-21T17:56:41.291Z,96022.18
2018-01-21T17:59:08.878Z,96023.61
2018-01-21T18:01:36.550Z,96023.55
2018-01-21T18:04:04.119Z,96033.03
2018-01-21T18:06:31.731Z,96044.18
2018-01-21T18:08:59.470Z,96048.44
2018-01-21T18:11:27.611Z,96053.16
2018-01-21T18:13:55.239Z,96060.63
2018-01-21T18:16:23.746Z,96060.16
2018-01-21T18:18:51.320Z,96065.24
2018-01-21T18:24:09.572Z,96069.47
2018-01-21T18:26:37.143Z,96074.09
2018-01-21T18:29:04.798Z,96078.02
2018-01-21T18:31:32.455Z,96087.64
2018-01-21T18:34:00.039Z,96094.68
2018-01-21T18:36:27.586Z,96100.52
2018-01-21T18:38:55.734Z,96102.09
2018-01-21T18:41:23.518Z,96106.06
2018-01-21T18:43:51.118Z,96110.31
2018-01-21T18:46:18.737Z,96117.16
2018-01-21T18:48:46.297Z,96121.59
2018-01-21T18:51:13.882Z,96128.97
2018-01-21T18:53:41.503Z,96121.13
2018-01-21T18:56:09.148Z,96119.41
2018-01-21T18:58:36.706Z,96121.91
2018-01-21T19:01:04.371Z,96125.78
2018-01-21T19:03:32.818Z,96131.56
2018-01-21T19:06:02.831Z,96137.05
2018-01-21T19:08:30.582Z,96137.11
2018-01-21T19:10:58.187Z,96134.37
2018-01-21T19:13:26.234Z,96129.86
2018-01-21T19:15:56.002Z,96135.72
2018-01-21T19:18:23.661Z,96137.30
2018-01-21T19:20:51.282Z,96136.05
2018-01-21T19:23:19.477Z,96138.05
2018-01-21T19:25:47.406Z,96137.54
2018-01-21T19:28:15.178Z,96137.67
2018-01-21T19:30:42.750Z,96133.64
2018-01-21T19:33:10.908Z,96127.25
2018-01-21T19:35:41.049Z,96119.61
2018-01-21T19:38:08.942Z,96117.12
2018-01-21T19:40:42.019Z,96108.47
2018-01-21T19:43:18.100Z,96110.69
2018-01-21T19:45:46.291Z,96107.95
2018-01-21T19:48:13.973Z,96103.61
2018-01-21T19:50:42.344Z,96106.97
2018-01-21T19:53:11.119Z,96111.25
2018-01-21T19:55:40.675Z,96112.88
2018-01-21T19:58:11.498Z,96112.93
2018-01-21T20:00:41.834Z,96117.11
2018-01-21T20:03:10.400Z,96116.48
2018-01-21T20:05:37.998Z,96120.41
2018-01-21T20:08:05.639Z,96128.41
2018-01-21T20:10:33.211Z,96128.95
2018-01-21T20:13:07.817Z,96133.75
2018-01-21T20:15:35.577Z,96132.54
2018-01-21T20:18:03.400Z,96139.56
2018-01-21T20:20:30.992Z,96142.07
2018-01-21T20:22:58.583Z,96134.69
2018-01-21T20:25:26.166Z,96129.77
2018-01-21T20:27:53.796Z,96133.86
2018-01-21T20:30:21.405Z,96132.44
2018-01-21T20:32:48.998Z,96132.80
2018-01-21T20:35:16.598Z,96142.45
2018-01-21T20:37:44.404Z,96144.36
2018-01-21T20:40:12.399Z,96145.89
2018-01-21T20:42:39.983Z,96147.20
2018-01-21T20:45:07.680Z,96137.61
2018-01-21T20:47:35.676Z,96156.27
2018-01-21T20:50:03.317Z,96164.30
2018-01-21T20:52:36.553Z,96157.38
2018-01-21T20:55:04.231Z,96160.11
2018-01-21T20:57:32.137Z,96153.23
2018-01-21T21:00:00.360Z,96151.03
2018-01-21T21:02:28.018Z,96148.86
2018-01-21T21:04:55.693Z,96155.20
2018-01-21T21:07:25.215Z,96160.27
2018-01-21T21:09:52.946Z,96157.39
2018-01-21T21:12:20.522Z,96164.57
2018-01-21T21:14:48.158Z,96164.98
2018-01-21T21:17:15.741Z,96174.93
2018-01-21T21:19:46.234Z,96173.76
2018-01-21T21:22:15.927Z,96169.33
2018-01-21T21:24:43.911Z,96172.84
2018-01-21T21:27:14.699Z,96176.97
2018-01-21T21:29:49.157Z,96171.12
2018-01-21T21:32:16.793Z,96166.28
2018-01-21T21:34:44.988Z,96167.99
2018-01-21T21:40:03.722Z,96149.23
2018-01-21T21:42:31.376Z,96150.04
2018-01-21T21:44:59.002Z,96146.86
2018-01-21T21:47:30.017Z,96147.41
2018-01-21T21:49:58.761Z,96144.03
2018-01-21T21:52:36.157Z,96151.16
2018-01-21T21:55:07.466Z,96153.66
2018-01-21T21:57:34.999Z,96159.67
2018-01-21T22:00:02.689Z,96158.24
2018-01-21T22:02:30.376Z,96159.47
2018-01-21T22:04:58.064Z,96161.34
2018-01-21T22:10:16.006Z,96172.02
2018-01-21T22:12:43.928Z,96168.15
2018-01-21T22:15:12.218Z,96174.67
2018-01-21T22:17:39.887Z,96175.31
2018-01-21T22:20:07.466Z,96165.90
2018-01-21T22:22:35.121Z,96161.59
2018-01-21T22:25:02.718Z,96156.66
2018-01-21T22:27:30.601Z,96160.56
2018-01-21T22:29:58.298Z,96161.91
2018-01-21T22:32:25.951Z,96168.97
2018-01-21T22:34:53.829Z,96174.42
2018-01-21T22:37:21.849Z,96171.62
2018-01-21T22:39:49.497Z,96164.57
2018-01-21T22:42:17.098Z,96157.53
2018-01-21T22:44:44.809Z,96161.47
2018-01-21T22:47:12.438Z,96159.50
2018-01-21T22:49:40.049Z,96163.86
2018-01-21T22:52:07.877Z,96167.80
2018-01-21T22:54:35.510Z,96165.55
2018-01-21T22:57:03.147Z,96168.02
2018-01-21T22:59:30.826Z,96164.58
2018-01-21T23:02:01.294Z,96169.58
2018-01-21T23:04:28.894Z,96164.50
2018-01-21T23:06:56.546Z,96160.67
2018-01-21T23:09:24.224Z,96159.00
2018-01-21T23:11:51.838Z,96163.36
2018-01-21T23:14:20.857Z,96160.09
2018-01-21T23:16:48.454Z,96148.15
2018-01-21T23:19:16.072Z,96140.14
2018-01-21T23:21:43.696Z,96140.31
2018-01-21T23:24:14.111Z,96147.61
2018-01-21T23:26:45.713Z,96146.11
2018-01-21T23:29:13.410Z,96143.53
2018-01-21T23:31:43.295Z,96143.57
2018-01-21T23:34:12.212Z,96140.89
2018-01-21T23:36:39.955Z,96138.98
2018-01-21T23:39:07.884Z,96138.80
2018-01-21T23:41:35.575Z,96144.84
2018-01-21T23:44:03.210Z,96136.84
2018-01-21T23:46:31.590Z,96136.64
2018-01-21T23:49:01.661Z,96141.98
2018-01-21T23:51:30.023Z,96140.80
2018-01-21T23:53:57.660Z,96136.21
2018-01-21T23:56:26.195Z,96143.27
2018-01-21T23:58:58.282Z,96146.05
